createdAt,value
2024-03-04T00:00:25.900Z,68.90
2024-03-04T00:06:06.440Z,69.98
2024-03-04T00:12:57.644Z,70.92
2024-03-04T00:16:42.363Z,71.05
2024-03-04T00:19:20.622Z,71.27
2024-03-04T00:21:48.729Z,71.19
2024-03-04T00:24:17.186Z,71.48
2024-03-04T00:26:44.880Z,71.86
2024-03-04T00:29:12.653Z,72.18
2024-03-04T00:31:40.834Z,72.38
2024-03-04T00:34:08.683Z,72.41
2024-03-04T00:36:36.353Z,72.66
2024-03-04T00:39:04.387Z,72.70
2024-03-04T00:41:32.556Z,72.58
2024-03-04T00:44:00.456Z,72.70
2024-03-04T00:46:28.387Z,72.79
2024-03-04T00:48:56.540Z,72.76
2024-03-04T00:51:24.533Z,72.64
2024-03-04T00:53:52.239Z,72.81
2024-03-04T00:56:20.413Z,73.23
2024-03-04T00:58:49.551Z,73.44
2024-03-04T01:01:17.625Z,73.96
2024-03-04T01:03:45.644Z,74.53
2024-03-04T01:06:13.371Z,75.10
2024-03-04T01:08:41.093Z,75.82
2024-03-04T01:11:09.008Z,76.14
2024-03-04T01:13:37.305Z,76.81
2024-03-04T01:16:06.466Z,77.50
2024-03-04T01:18:35.904Z,78.14
2024-03-04T01:21:05.503Z,78.53
2024-03-04T01:23:33.422Z,79.25
2024-03-04T01:26:01.957Z,79.77
2024-03-04T01:28:29.967Z,80.21
2024-03-04T01:30:57.846Z,80.42
2024-03-04T01:33:25.789Z,80.72
2024-03-04T01:35:53.516Z,81.26
2024-03-04T01:38:21.345Z,81.50
2024-03-04T01:40:49.218Z,81.72
2024-03-04T01:43:18.815Z,82.23
2024-03-04T01:45:46.600Z,82.67
2024-03-04T01:48:14.425Z,82.92
2024-03-04T01:50:45.051Z,83.47
2024-03-04T01:53:13.518Z,83.91
2024-03-04T01:55:44.497Z,84.46
2024-03-04T01:58:18.419Z,84.61
2024-03-04T02:00:49.406Z,85.32
2024-03-04T02:03:18.406Z,86.16
2024-03-04T02:05:47.086Z,86.92
2024-03-04T02:08:17.101Z,87.32
2024-03-04T02:10:45.206Z,88.13
2024-03-04T02:13:13.397Z,88.79
2024-03-04T02:15:42.132Z,89.03
2024-03-04T02:18:10.679Z,89.59
2024-03-04T02:20:39.714Z,89.84
2024-03-04T02:23:09.503Z,90.03
2024-03-04T02:25:37.481Z,90.87
2024-03-04T02:28:06.646Z,91.16
2024-03-04T02:30:35.061Z,91.27
2024-03-04T02:33:05.073Z,92.07
2024-03-04T02:35:33.891Z,92.22
2024-03-04T02:38:02.699Z,92.43
2024-03-04T02:40:30.452Z,92.32
2024-03-04T02:42:58.273Z,92.39
2024-03-04T02:45:26.209Z,92.58
2024-03-04T02:47:54.524Z,92.83
2024-03-04T02:50:22.632Z,93.49
2024-03-04T02:52:51.795Z,93.94
2024-03-04T02:55:19.634Z,94.01
2024-03-04T02:57:48.090Z,94.14
2024-03-04T03:00:18.051Z,94.22
2024-03-04T03:02:46.089Z,94.38
2024-03-04T03:05:14.025Z,94.45
2024-03-04T03:07:41.780Z,94.34
2024-03-04T03:10:11.524Z,94.75
2024-03-04T03:12:39.317Z,94.81
2024-03-04T03:15:09.091Z,94.98
2024-03-04T03:17:37.248Z,95.33
2024-03-04T03:20:19.811Z,95.97
2024-03-04T03:22:49.100Z,96.07
2024-03-04T03:25:17.051Z,96.52
2024-03-04T03:27:44.905Z,96.42
2024-03-04T03:30:15.056Z,96.45
2024-03-04T03:32:43.724Z,96.90
2024-03-04T03:35:11.520Z,96.92
2024-03-04T03:37:39.347Z,97.05
2024-03-04T03:40:11.299Z,97.26
2024-03-04T03:42:39.065Z,96.92
2024-03-04T03:45:08.900Z,97.14
2024-03-04T03:47:36.606Z,97.23
2024-03-04T03:50:06.283Z,97.40
2024-03-04T03:52:35.526Z,97.81
2024-03-04T03:55:04.469Z,98.01
2024-03-04T03:57:41.589Z,98.19
2024-03-04T04:00:20.277Z,98.11
2024-03-04T04:02:48.058Z,98.28
2024-03-04T04:05:15.958Z,98.28
2024-03-04T04:07:43.923Z,98.44
2024-03-04T04:10:11.725Z,98.73
2024-03-04T04:12:39.425Z,98.83
2024-03-04T04:15:08.391Z,99.17
2024-03-04T04:17:36.113Z,99.08
2024-03-04T04:20:07.415Z,98.97
2024-03-04T04:22:35.108Z,98.79
2024-03-04T04:25:03.107Z,99.41
2024-03-04T04:27:30.980Z,99.48
2024-03-04T04:29:59.171Z,99.51
2024-03-04T04:32:27.707Z,99.43
2024-03-04T04:34:55.334Z,99.40
2024-03-04T04:37:23.105Z,99.46
2024-03-04T04:39:51.040Z,99.32
2024-03-04T04:42:19.126Z,99.72
2024-03-04T04:44:47.234Z,99.51
2024-03-04T04:47:14.962Z,99.42
2024-03-04T04:49:42.904Z,99.42
2024-03-04T04:52:10.767Z,99.61
2024-03-04T04:54:38.468Z,99.92
2024-03-04T04:57:06.300Z,99.90
2024-03-04T04:59:33.971Z,100.00
2024-03-04T05:02:01.810Z,99.93
2024-03-04T05:04:43.797Z,99.82
2024-03-04T05:07:17.914Z,99.61
2024-03-04T05:09:45.609Z,99.67
2024-03-04T05:12:13.305Z,99.92
2024-03-04T05:14:41.153Z,99.78
2024-03-04T05:17:11.354Z,99.85
2024-03-04T05:19:39.107Z,100.00
2024-03-04T05:22:08.720Z,99.94
2024-03-04T05:24:36.449Z,99.96
2024-03-04T05:27:04.924Z,100.00
2024-03-04T05:29:32.747Z,99.93
2024-03-04T05:32:00.449Z,99.94
2024-03-04T05:34:28.642Z,99.85
2024-03-04T05:36:56.380Z,99.68
2024-03-04T05:39:24.564Z,98.98
2024-03-04T05:41:52.513Z,98.26
2024-03-04T05:44:20.599Z,97.71
2024-03-04T05:46:51.226Z,97.31
2024-03-04T05:49:19.456Z,97.09
2024-03-04T05:51:47.206Z,97.38
2024-03-04T05:54:14.913Z,97.93
2024-03-04T05:56:43.756Z,98.51
2024-03-04T05:59:11.631Z,98.96
2024-03-04T06:01:39.900Z,99.19
2024-03-04T06:04:08.432Z,99.24
2024-03-04T06:06:36.276Z,99.02
2024-03-04T06:09:05.665Z,98.87
2024-03-04T06:11:33.574Z,98.93
2024-03-04T06:14:01.887Z,99.23
2024-03-04T06:16:29.993Z,99.06
2024-03-04T06:18:57.848Z,98.98
2024-03-04T06:21:25.422Z,99.05
2024-03-04T06:23:53.969Z,99.02
2024-03-04T06:26:21.557Z,99.05
2024-03-04T06:28:49.484Z,98.82
2024-03-04T06:31:17.612Z,98.76
2024-03-04T06:33:52.567Z,98.65
2024-03-04T07:12:58.970Z,96.38
2024-03-04T07:23:14.578Z,95.31
2024-03-04T07:38:34.345Z,93.73
2024-03-04T08:17:54.808Z,89.22
2024-03-04T08:20:58.676Z,89.27
2024-03-04T08:32:15.167Z,87.97
2024-03-04T08:38:49.525Z,86.32
2024-03-04T08:50:07.721Z,84.32
2024-03-04T09:15:46.157Z,81.34
2024-03-04T09:27:22.043Z,80.47
2024-03-04T09:33:55.224Z,79.99
2024-03-04T09:37:46.820Z,79.90
2024-03-04T09:45:27.180Z,79.95
2024-03-04T10:34:25.120Z,82.00
2024-03-04T10:41:08.690Z,82.55
2024-03-04T10:54:37.482Z,83.90
2024-03-04T10:57:45.315Z,83.82
2024-03-04T11:01:22.865Z,83.53
2024-03-04T11:15:04.286Z,81.83
2024-03-04T11:24:58.419Z,78.87
2024-03-04T11:32:34.427Z,77.07
2024-03-04T11:47:36.576Z,72.59
2024-03-04T11:57:57.120Z,68.53
2024-03-04T12:12:12.482Z,67.73
2024-03-04T12:17:06.104Z,67.16
2024-03-04T12:36:29.153Z,66.86
2024-03-04T12:40:06.278Z,66.90
2024-03-04T12:50:08.470Z,67.03
2024-03-04T13:00:46.140Z,66.69
2024-03-04T13:06:42.569Z,67.47
2024-03-04T13:19:36.607Z,67.08
2024-03-04T13:35:46.065Z,68.76
2024-03-04T13:38:19.169Z,68.90
2024-03-04T13:41:14.521Z,69.05
2024-03-04T13:44:42.614Z,69.28
2024-03-04T14:01:01.997Z,70.54
2024-03-04T14:20:17.062Z,71.06
2024-03-04T14:23:01.413Z,71.14
2024-03-04T14:25:44.945Z,71.50
2024-03-04T14:28:42.547Z,71.86
2024-03-04T14:31:19.347Z,72.12
2024-03-04T14:48:34.904Z,73.41
2024-03-04T14:51:10.421Z,73.68
2024-03-04T14:54:04.247Z,73.81
2024-03-04T15:08:00.494Z,75.78
2024-03-04T15:21:05.063Z,77.78
2024-03-04T15:31:20.154Z,79.20
2024-03-04T15:34:35.855Z,79.47
2024-03-04T15:37:42.519Z,79.38
2024-03-04T15:44:22.194Z,79.74
2024-03-04T15:57:34.434Z,81.06
2024-03-04T16:07:38.852Z,82.07
2024-03-04T16:10:53.713Z,82.26
2024-03-04T16:13:36.686Z,82.71
2024-03-04T16:16:28.887Z,83.06
2024-03-04T16:19:19.454Z,83.30
2024-03-04T16:22:24.108Z,83.66
2024-03-04T16:26:00.988Z,84.06
2024-03-04T16:32:27.429Z,84.78
2024-03-04T16:35:32.869Z,85.19
2024-03-04T16:49:01.162Z,86.58
2024-03-04T16:52:16.052Z,86.85
2024-03-04T16:58:45.080Z,86.77
2024-03-04T17:02:00.990Z,86.89
2024-03-04T17:05:07.485Z,87.28
2024-03-04T17:17:28.746Z,87.07
2024-03-04T17:30:09.061Z,87.28
2024-03-04T17:33:08.051Z,87.17
2024-03-04T17:36:31.533Z,87.28
2024-03-04T17:47:37.576Z,87.51
2024-03-04T17:54:06.009Z,87.79
2024-03-04T17:57:05.987Z,87.95
2024-03-04T17:59:52.738Z,88.06
2024-03-04T18:05:51.185Z,88.37
2024-03-04T18:12:20.954Z,88.56
2024-03-04T18:18:42.731Z,88.70
2024-03-04T18:21:53.262Z,88.77
2024-03-04T18:25:01.288Z,88.71
2024-03-04T18:27:59.951Z,88.77
2024-03-04T18:31:22.880Z,88.65
2024-03-04T18:34:12.120Z,88.62
2024-03-04T18:36:54.390Z,88.67
2024-03-04T18:43:26.635Z,88.79
2024-03-04T18:46:23.892Z,88.83
2024-03-04T18:50:04.226Z,88.78
2024-03-04T18:53:20.826Z,88.75
2024-03-04T18:56:29.984Z,88.87
2024-03-04T18:59:35.244Z,89.07
2024-03-04T19:02:46.198Z,89.20
2024-03-04T19:09:26.129Z,89.48
2024-03-04T19:12:38.513Z,89.48
2024-03-04T19:16:01.631Z,89.67
2024-03-04T19:19:32.120Z,89.72
2024-03-04T19:22:41.098Z,89.82
2024-03-04T19:25:59.232Z,89.91
2024-03-04T19:29:03.427Z,90.01
2024-03-04T19:32:21.287Z,90.07
2024-03-04T19:35:24.431Z,90.03
2024-03-04T19:41:16.320Z,90.18
2024-03-04T19:53:31.778Z,90.26
2024-03-04T19:56:19.662Z,90.29
2024-03-04T19:59:25.808Z,90.26
2024-03-04T20:02:45.778Z,90.22
2024-03-04T20:09:19.228Z,90.20
2024-03-04T20:12:03.584Z,90.25
2024-03-04T20:14:39.906Z,90.36
2024-03-04T20:28:01.350Z,90.19
2024-03-04T20:31:08.874Z,90.05
2024-03-04T20:34:05.151Z,90.15
2024-03-04T20:36:52.453Z,90.09
2024-03-04T20:39:32.040Z,89.86
2024-03-04T20:42:15.358Z,89.89
2024-03-04T20:45:09.846Z,89.83
2024-03-04T20:47:45.427Z,89.89
2024-03-04T20:50:24.778Z,90.11
2024-03-04T20:53:13.667Z,90.12
2024-03-04T20:55:55.778Z,90.18
2024-03-04T20:58:46.833Z,90.04
2024-03-04T21:01:43.711Z,90.08
2024-03-04T21:04:39.412Z,90.15
2024-03-04T21:07:16.490Z,90.13
2024-03-04T21:10:15.960Z,90.09
2024-03-04T21:13:09.569Z,90.03
2024-03-04T21:15:53.421Z,90.15
2024-03-04T21:26:35.700Z,90.03
2024-03-04T21:29:03.237Z,90.23
2024-03-04T21:32:29.201Z,90.41
2024-03-04T21:35:33.549Z,90.22
2024-03-04T21:45:38.507Z,90.32
2024-03-04T21:52:12.857Z,90.51
2024-03-04T21:55:19.474Z,90.71
2024-03-04T21:58:41.048Z,90.54
2024-03-04T22:02:05.215Z,90.65
2024-03-04T22:12:10.660Z,91.13
2024-03-04T22:19:03.205Z,90.80
2024-03-04T22:25:33.916Z,90.59
2024-03-04T22:32:10.142Z,90.45
2024-03-04T22:38:56.170Z,90.16
2024-03-04T22:42:12.570Z,90.14
2024-03-04T22:45:26.513Z,90.17
2024-03-04T22:51:14.634Z,90.17
2024-03-04T23:02:08.728Z,90.17
2024-03-04T23:09:33.561Z,90.18
2024-03-04T23:15:47.791Z,90.46
2024-03-04T23:19:03.469Z,90.35
2024-03-04T23:25:41.927Z,90.52
2024-03-04T23:28:53.579Z,90.86
2024-03-04T23:44:16.979Z,91.34
2024-03-04T23:47:35.634Z,91.56
2024-03-04T23:50:54.664Z,91.81
